KOMK/OMK METAR and TAF weather

Enter ICAO airport designator
Station Type Date Time Source
KOMK METAR 2021/09/16 10:53 UTC NOAA

KOMK 161053Z AUTO 30006KT 10SM CLR 04/M01 A3007 RMK AO2 SLP182 T00441006


Station Type Date Time Source
KOMK Decoded METAR 2021/09/16 10:53 UTC NOAA

OMAK AIRPORT, WA, United States (KOMK) 48-28N 119-31W 395M
Sep 16, 2021 - 06:53 AM EDT / 2021.09.16 1053 UTC
Wind: from the WNW (300 degrees) at 7 MPH (6 KT):0
Visibility: 10 mile(s):0
Sky conditions: clear
Temperature: 39.9 F (4.4 C)
Dew Point: 30.9 F (-0.6 C)
Relative Humidity: 69%
Pressure (altimeter): 30.07 in. Hg (1018 hPa)
ob: KOMK 161053Z AUTO 30006KT 10SM CLR 04/M01 A3007 RMK AO2 SLP182 T00441006
cycle: 11

Station Type Date Time Source
KOMK TAF UTC NOAA

Error!

Example: see airport list